createdAt,value
2023-03-16T00:01:27.215Z,25.00
2023-03-16T00:03:55.179Z,19.00
2023-03-16T00:06:25.585Z,18.00
2023-03-16T00:08:59.007Z,14.00
2023-03-16T00:11:27.028Z,16.00
2023-03-16T00:13:54.966Z,23.00
2023-03-16T00:16:23.005Z,20.50
2023-03-16T00:18:50.916Z,13.50
2023-03-16T00:21:18.914Z,15.00
2023-03-16T00:23:46.919Z,17.00
2023-03-16T00:26:15.167Z,28.00
2023-03-16T00:28:43.588Z,24.00
2023-03-16T00:31:14.934Z,20.00
2023-03-16T00:33:43.176Z,24.50
2023-03-16T00:36:12.797Z,24.00
2023-03-16T00:38:45.472Z,32.00
2023-03-16T00:41:15.407Z,27.00
2023-03-16T00:43:45.529Z,19.00
2023-03-16T00:46:16.275Z,28.00
2023-03-16T00:48:47.301Z,31.00
2023-03-16T00:51:17.842Z,31.00
2023-03-16T00:53:47.571Z,36.33
2023-03-16T00:56:16.812Z,34.00
2023-03-16T00:58:45.722Z,31.00
2023-03-16T01:01:17.245Z,29.00
2023-03-16T01:03:45.635Z,42.00
2023-03-16T01:06:17.313Z,29.00
2023-03-16T01:08:45.649Z,37.50
2023-03-16T01:11:18.951Z,33.00
2023-03-16T01:13:48.625Z,29.50
2023-03-16T01:16:19.249Z,34.00
2023-03-16T01:18:50.626Z,29.00
2023-03-16T01:21:18.942Z,26.00
2023-03-16T01:23:46.855Z,29.50
2023-03-16T01:26:17.844Z,32.00
2023-03-16T01:28:47.863Z,31.00
2023-03-16T01:31:16.554Z,27.00
2023-03-16T01:33:44.640Z,26.00
2023-03-16T01:36:18.475Z,28.00
2023-03-16T01:39:00.444Z,27.50
2023-03-16T01:41:32.214Z,29.00
2023-03-16T01:44:00.223Z,26.50
2023-03-16T01:46:30.618Z,27.50
2023-03-16T01:49:32.948Z,22.00
2023-03-16T01:52:07.381Z,26.00
2023-03-16T01:54:47.369Z,29.33
2023-03-16T01:57:19.857Z,32.00
2023-03-16T01:59:50.532Z,32.50
2023-03-16T02:02:22.726Z,31.00
2023-03-16T02:05:02.654Z,21.00
2023-03-16T02:10:38.797Z,27.00
2023-03-16T02:13:07.173Z,27.00
2023-03-16T02:15:36.247Z,28.00
2023-03-16T02:18:07.998Z,27.00
2023-03-16T02:21:11.943Z,26.00
2023-03-16T02:23:40.115Z,30.00
2023-03-16T02:29:21.254Z,29.33
2023-03-16T02:31:52.266Z,30.00
2023-03-16T02:34:20.451Z,32.00
2023-03-16T02:36:52.359Z,28.50
2023-03-16T02:39:23.732Z,20.00
2023-03-16T02:41:52.527Z,29.00
2023-03-16T02:44:24.498Z,22.00
2023-03-16T02:46:58.355Z,21.00
2023-03-16T02:49:42.479Z,15.33
2023-03-16T02:52:11.268Z,19.50
2023-03-16T02:54:39.238Z,22.50
2023-03-16T02:57:07.235Z,25.00
2023-03-16T02:59:36.143Z,23.00
2023-03-16T03:02:04.484Z,22.00
2023-03-16T03:04:33.200Z,19.00
2023-03-16T03:07:05.015Z,18.50
2023-03-16T03:09:37.890Z,23.00
2023-03-16T03:12:06.378Z,21.50
2023-03-16T03:14:38.911Z,20.00
2023-03-16T03:17:08.280Z,20.00
2023-03-16T03:19:37.100Z,15.50
2023-03-16T03:22:06.601Z,23.50
2023-03-16T03:24:35.006Z,19.00
2023-03-16T03:27:06.075Z,15.00
2023-03-16T03:29:35.423Z,23.00
2023-03-16T03:32:05.420Z,16.00
2023-03-16T03:34:33.598Z,15.00
2023-03-16T03:37:01.649Z,23.50
2023-03-16T03:39:29.975Z,22.00
2023-03-16T03:41:57.950Z,19.00
2023-03-16T03:44:27.211Z,23.00
2023-03-16T03:49:26.871Z,18.00
2023-03-16T03:51:55.791Z,18.00
2023-03-16T03:54:26.948Z,23.00
2023-03-16T03:56:59.296Z,18.50
2023-03-16T03:59:28.092Z,18.00
2023-03-16T04:02:19.232Z,21.00
2023-03-16T04:04:52.160Z,9.00
2023-03-16T04:07:20.589Z,18.00
2023-03-16T04:09:49.040Z,19.00
2023-03-16T04:12:24.143Z,20.00
2023-03-16T04:14:52.351Z,16.00
2023-03-16T04:17:21.419Z,22.00
2023-03-16T04:19:49.879Z,22.50
2023-03-16T04:22:18.609Z,22.00
2023-03-16T04:24:47.593Z,23.00
2023-03-16T04:27:15.546Z,21.50
2023-03-16T04:29:43.902Z,22.00
2023-03-16T04:32:12.661Z,21.00
2023-03-16T04:34:44.032Z,24.00
2023-03-16T04:37:13.623Z,26.00
2023-03-16T04:39:43.369Z,21.00
2023-03-16T04:42:12.529Z,22.50
2023-03-16T04:44:44.671Z,25.00
2023-03-16T04:47:16.632Z,25.00
2023-03-16T04:49:45.741Z,19.00
2023-03-16T04:52:14.107Z,18.00
2023-03-16T04:54:42.492Z,19.00
2023-03-16T04:57:11.042Z,21.00
2023-03-16T04:59:45.470Z,24.50
2023-03-16T05:02:21.154Z,24.50
2023-03-16T05:04:49.899Z,30.00
2023-03-16T05:07:19.320Z,29.00
2023-03-16T05:09:50.464Z,34.00
2023-03-16T05:12:18.602Z,38.00
2023-03-16T05:14:47.177Z,31.00
2023-03-16T05:17:30.741Z,33.00
2023-03-16T05:19:58.746Z,39.00
2023-03-16T05:22:28.058Z,36.00
2023-03-16T05:25:15.503Z,35.50
2023-03-16T05:27:51.079Z,39.50
2023-03-16T05:30:39.562Z,39.67
2023-03-16T05:33:10.125Z,45.00
2023-03-16T05:35:38.546Z,45.00
2023-03-16T05:38:10.243Z,39.00
2023-03-16T05:40:40.670Z,36.00
2023-03-16T05:43:24.927Z,35.67
2023-03-16T05:50:45.458Z,27.00
2023-03-16T05:53:15.438Z,34.33
2023-03-16T05:55:43.787Z,35.50
2023-03-16T05:58:13.360Z,27.00
2023-03-16T06:00:42.250Z,34.50
2023-03-16T06:03:17.723Z,35.00
2023-03-16T06:05:46.061Z,36.50
2023-03-16T06:08:15.984Z,40.00
2023-03-16T06:10:48.384Z,37.50
2023-03-16T06:13:17.710Z,43.50
2023-03-16T06:15:46.127Z,44.50
2023-03-16T06:18:14.489Z,38.00
2023-03-16T06:20:43.555Z,48.00
2023-03-16T06:23:11.729Z,26.00
2023-03-16T06:25:40.846Z,58.67
2023-03-16T06:28:09.603Z,53.50
2023-03-16T06:30:38.417Z,46.00
2023-03-16T06:33:06.849Z,49.00
2023-03-16T06:35:35.186Z,49.00
2023-03-16T06:38:29.333Z,58.00
2023-03-16T06:41:01.812Z,42.00
2023-03-16T06:43:30.621Z,54.00
2023-03-16T06:45:59.146Z,49.00
2023-03-16T06:48:27.364Z,39.50
2023-03-16T06:50:55.696Z,44.00
2023-03-16T06:53:26.785Z,50.00
2023-03-16T06:55:55.210Z,50.00
2023-03-16T06:58:23.361Z,39.00
2023-03-16T07:00:54.094Z,42.00
2023-03-16T07:03:22.344Z,33.50
2023-03-16T07:06:13.723Z,32.00
2023-03-16T07:08:44.258Z,38.00
2023-03-16T07:11:15.177Z,39.00
2023-03-16T07:13:44.327Z,31.00
2023-03-16T07:16:15.368Z,38.00
2023-03-16T07:18:44.917Z,42.50
2023-03-16T07:21:15.955Z,26.50
2023-03-16T07:23:45.171Z,28.00
2023-03-16T07:26:18.628Z,28.00
2023-03-16T07:28:57.899Z,34.50
2023-03-16T07:31:40.372Z,32.50
2023-03-16T07:34:13.547Z,43.67
2023-03-16T07:36:48.735Z,34.00
2023-03-16T07:39:17.958Z,32.50
2023-03-16T07:41:46.550Z,30.00
2023-03-16T07:44:18.162Z,41.00
2023-03-16T07:46:51.664Z,37.00
2023-03-16T07:52:13.841Z,74.00
2023-03-16T07:54:43.457Z,60.00
2023-03-16T07:57:12.131Z,52.00
2023-03-16T07:59:43.474Z,42.00
2023-03-16T08:02:16.289Z,45.00
2023-03-16T08:04:46.521Z,53.00
2023-03-16T08:07:16.581Z,36.00
2023-03-16T08:10:20.249Z,35.33
2023-03-16T08:12:56.859Z,32.50
2023-03-16T08:15:25.991Z,29.00
2023-03-16T08:18:12.711Z,33.00
2023-03-16T08:20:53.278Z,29.50
2023-03-16T08:23:24.377Z,33.50
2023-03-16T08:25:55.205Z,34.50
2023-03-16T08:28:26.243Z,34.00
2023-03-16T08:30:58.752Z,28.00
2023-03-16T08:33:52.253Z,31.50
2023-03-16T08:36:25.131Z,28.00
2023-03-16T08:39:06.443Z,30.00
2023-03-16T08:41:40.791Z,26.00
2023-03-16T08:46:47.904Z,30.33
2023-03-16T08:49:17.541Z,29.00
2023-03-16T08:51:47.298Z,32.50
2023-03-16T08:54:18.636Z,32.00
2023-03-16T08:56:47.686Z,22.00
2023-03-16T08:59:29.155Z,22.50
2023-03-16T09:01:59.010Z,27.67
2023-03-16T09:04:28.550Z,26.00
2023-03-16T09:07:08.412Z,22.00
2023-03-16T09:09:39.985Z,20.00
2023-03-16T09:12:12.564Z,14.00
2023-03-16T09:14:43.331Z,16.50
2023-03-16T09:17:12.925Z,22.00
2023-03-16T09:19:51.980Z,18.50
2023-03-16T09:22:22.044Z,14.00
2023-03-16T09:24:52.368Z,11.00
2023-03-16T09:27:22.771Z,9.33
2023-03-16T09:30:08.180Z,12.00
2023-03-16T09:32:37.683Z,10.00
2023-03-16T09:35:09.975Z,12.00
2023-03-16T09:37:44.966Z,12.00
2023-03-16T09:40:28.905Z,15.00
2023-03-16T09:43:21.036Z,14.00
2023-03-16T09:46:04.184Z,8.00
2023-03-16T09:48:35.764Z,32.50
2023-03-16T09:51:14.486Z,44.67
2023-03-16T09:53:45.978Z,72.00
2023-03-16T09:56:27.585Z,42.00
2023-03-16T09:58:56.878Z,30.00
2023-03-16T10:01:35.975Z,13.00
2023-03-16T10:04:24.714Z,13.33
2023-03-16T10:07:16.523Z,13.00
2023-03-16T10:10:19.701Z,13.50
2023-03-16T10:12:53.172Z,9.00
2023-03-16T10:15:31.481Z,12.67
2023-03-16T10:18:16.406Z,9.50
2023-03-16T10:20:46.821Z,11.00
2023-03-16T10:23:24.441Z,7.50
2023-03-16T10:25:55.025Z,10.00
2023-03-16T10:28:28.625Z,8.00
2023-03-16T10:31:00.452Z,7.33
2023-03-16T10:33:39.732Z,12.00
2023-03-16T10:36:25.498Z,11.00
2023-03-16T10:38:59.802Z,10.50
2023-03-16T10:41:37.452Z,16.00
2023-03-16T10:44:27.569Z,17.00
2023-03-16T10:47:05.595Z,15.00
2023-03-16T10:49:47.329Z,13.50
2023-03-16T10:52:40.073Z,13.33
2023-03-16T10:55:19.690Z,14.00
2023-03-16T10:57:52.063Z,7.00
2023-03-16T11:00:27.340Z,15.00
2023-03-16T11:02:59.792Z,8.50
2023-03-16T11:05:34.393Z,6.00
2023-03-16T11:08:12.294Z,8.00
2023-03-16T11:10:55.454Z,6.50
2023-03-16T11:13:39.149Z,6.00
2023-03-16T11:16:46.381Z,4.00
2023-03-16T11:19:29.440Z,3.00
2023-03-16T11:22:16.472Z,7.00
2023-03-16T11:25:02.477Z,14.50
2023-03-16T11:27:35.741Z,8.00
2023-03-16T11:30:18.138Z,13.67
2023-03-16T11:32:51.224Z,16.00
2023-03-16T11:35:24.099Z,23.00
2023-03-16T11:38:33.056Z,49.00
2023-03-16T11:41:05.925Z,19.00
2023-03-16T11:43:55.481Z,12.00
2023-03-16T11:46:32.754Z,6.00
2023-03-16T11:49:04.150Z,7.00
2023-03-16T11:51:42.298Z,8.00
2023-03-16T11:54:53.370Z,6.00
2023-03-16T11:57:51.907Z,4.00
2023-03-16T12:00:31.515Z,3.00
2023-03-16T12:03:05.718Z,3.00
2023-03-16T12:06:23.417Z,3.00
2023-03-16T12:09:04.711Z,6.00
2023-03-16T12:11:51.593Z,10.00
2023-03-16T12:14:23.445Z,7.00
2023-03-16T12:17:14.926Z,6.00
2023-03-16T12:19:51.052Z,4.00
2023-03-16T12:22:33.712Z,2.50
2023-03-16T12:25:13.452Z,5.00
2023-03-16T12:27:44.888Z,3.00
2023-03-16T12:30:42.579Z,6.00
2023-03-16T12:33:25.429Z,8.00
2023-03-16T12:36:31.250Z,5.00
2023-03-16T12:39:07.497Z,4.50
2023-03-16T12:41:54.644Z,6.00
2023-03-16T12:44:47.515Z,5.00
2023-03-16T12:47:24.035Z,10.00
2023-03-16T12:49:52.521Z,4.00
2023-03-16T12:52:22.625Z,5.00
2023-03-16T12:55:08.667Z,4.00
2023-03-16T12:57:41.018Z,5.00
2023-03-16T13:00:12.746Z,3.00
2023-03-16T13:02:53.712Z,4.00
2023-03-16T13:05:38.929Z,4.00
2023-03-16T13:08:15.944Z,2.00
2023-03-16T13:11:09.787Z,2.67
2023-03-16T13:13:50.603Z,5.50
2023-03-16T13:16:29.151Z,3.00
2023-03-16T13:18:59.486Z,4.00
2023-03-16T13:21:41.372Z,3.00
2023-03-16T13:24:29.445Z,4.00
2023-03-16T13:27:15.858Z,4.00
2023-03-16T13:29:53.776Z,3.00
2023-03-16T13:32:27.502Z,3.00
2023-03-16T13:35:00.972Z,6.00
2023-03-16T13:37:34.784Z,3.50
2023-03-16T13:40:17.035Z,4.00
2023-03-16T13:42:52.966Z,5.00
2023-03-16T13:45:28.226Z,4.00
2023-03-16T13:47:59.090Z,6.00
2023-03-16T13:50:32.725Z,5.00
2023-03-16T13:53:05.026Z,5.50
2023-03-16T13:55:37.366Z,4.00
2023-03-16T13:58:26.698Z,3.00
2023-03-16T14:00:59.386Z,4.00
2023-03-16T14:03:36.456Z,3.00
2023-03-16T14:06:06.366Z,1.33
2023-03-16T14:08:34.824Z,8.00
2023-03-16T14:11:03.791Z,6.00
2023-03-16T14:13:36.375Z,7.00
2023-03-16T14:16:15.248Z,9.00
2023-03-16T14:18:52.206Z,13.50
2023-03-16T14:21:24.062Z,20.33
2023-03-16T14:24:06.968Z,14.33
2023-03-16T14:26:46.679Z,13.00
2023-03-16T14:29:28.621Z,7.00
2023-03-16T14:31:57.280Z,7.00
2023-03-16T14:34:35.430Z,8.00
2023-03-16T14:37:08.586Z,12.00
2023-03-16T14:39:37.561Z,16.00
2023-03-16T14:42:14.442Z,17.00
2023-03-16T14:44:42.656Z,19.00
2023-03-16T14:47:22.810Z,16.00
2023-03-16T14:49:51.447Z,9.00
2023-03-16T14:52:31.728Z,9.00
2023-03-16T14:55:03.534Z,11.50
2023-03-16T14:57:31.878Z,12.00
2023-03-16T14:59:59.767Z,14.00
2023-03-16T15:02:33.466Z,24.50
2023-03-16T15:05:03.133Z,19.00
2023-03-16T15:07:35.347Z,43.00
2023-03-16T15:10:16.833Z,49.00
2023-03-16T15:12:50.672Z,46.00
2023-03-16T15:15:20.796Z,35.00
2023-03-16T15:17:50.769Z,44.00
2023-03-16T15:20:25.690Z,31.00
2023-03-16T15:22:53.964Z,32.00
2023-03-16T15:25:37.460Z,10.50
2023-03-16T15:28:25.544Z,11.50
2023-03-16T15:30:56.189Z,9.00
2023-03-16T15:33:25.115Z,6.00
2023-03-16T15:35:58.507Z,4.50
2023-03-16T15:38:33.532Z,8.00
2023-03-16T15:41:01.697Z,9.00
2023-03-16T15:46:00.045Z,4.33
2023-03-16T15:48:27.994Z,3.00
2023-03-16T15:51:22.436Z,4.00
2023-03-16T15:53:54.808Z,3.00
2023-03-16T15:56:29.936Z,6.50
2023-03-16T15:59:00.949Z,3.00
2023-03-16T16:01:34.241Z,6.00
2023-03-16T16:04:03.671Z,4.50
2023-03-16T16:06:31.999Z,6.00
2023-03-16T16:09:00.026Z,4.00
2023-03-16T16:11:28.511Z,5.00
2023-03-16T16:13:58.139Z,8.00
2023-03-16T16:16:30.550Z,6.50
2023-03-16T16:18:58.474Z,7.00
2023-03-16T16:21:31.044Z,5.00
2023-03-16T16:23:59.215Z,10.00
2023-03-16T16:26:48.247Z,11.00
2023-03-16T16:29:24.366Z,13.00
2023-03-16T16:31:53.012Z,16.00
2023-03-16T16:34:24.973Z,17.50
2023-03-16T16:36:54.869Z,22.00
2023-03-16T16:39:23.884Z,32.33
2023-03-16T16:41:54.894Z,33.00
2023-03-16T16:44:31.444Z,45.00
2023-03-16T16:47:02.674Z,54.50
2023-03-16T16:49:31.336Z,57.00
2023-03-16T16:51:59.739Z,53.00
2023-03-16T16:54:31.214Z,46.50
2023-03-16T16:57:01.348Z,40.00
2023-03-16T16:59:33.136Z,46.50
2023-03-16T17:02:03.317Z,46.00
2023-03-16T17:04:31.462Z,46.00
2023-03-16T17:07:02.156Z,35.50
2023-03-16T17:09:30.767Z,45.00
2023-03-16T17:12:01.149Z,43.00
2023-03-16T17:14:31.410Z,41.00
2023-03-16T17:17:02.731Z,47.00
2023-03-16T17:19:31.681Z,45.50
2023-03-16T17:21:59.765Z,46.00
2023-03-16T17:24:29.746Z,49.00
2023-03-16T17:27:01.099Z,55.00
2023-03-16T17:29:32.280Z,56.50
2023-03-16T17:32:02.959Z,48.00
2023-03-16T17:34:34.341Z,62.50
2023-03-16T17:37:02.818Z,59.00
2023-03-16T17:39:34.217Z,69.00
2023-03-16T17:42:06.254Z,59.00
2023-03-16T17:44:41.358Z,61.50
2023-03-16T17:47:19.420Z,69.00
2023-03-16T17:49:49.178Z,64.33
2023-03-16T17:52:29.363Z,54.00
2023-03-16T17:54:57.810Z,63.00
2023-03-16T17:57:29.897Z,65.00
2023-03-16T17:59:59.407Z,58.00
2023-03-16T18:02:34.859Z,59.50
2023-03-16T18:05:05.655Z,56.00
2023-03-16T18:07:33.527Z,57.00
2023-03-16T18:10:01.421Z,65.00
2023-03-16T18:12:30.056Z,61.00
2023-03-16T18:14:58.832Z,56.00
2023-03-16T18:17:30.192Z,60.00
2023-03-16T18:19:59.297Z,58.00
2023-03-16T18:22:27.970Z,60.00
2023-03-16T18:24:56.155Z,58.00
2023-03-16T18:27:24.594Z,59.00
2023-03-16T18:29:52.769Z,62.00
2023-03-16T18:32:25.218Z,56.00
2023-03-16T18:34:54.084Z,60.00
2023-03-16T18:37:24.942Z,68.00
2023-03-16T18:39:54.533Z,61.50
2023-03-16T18:42:26.006Z,71.00
2023-03-16T18:44:53.937Z,57.00
2023-03-16T18:47:24.162Z,71.00
2023-03-16T18:49:54.223Z,73.50
2023-03-16T18:52:25.028Z,69.00
2023-03-16T18:54:53.640Z,71.00
2023-03-16T18:57:25.544Z,80.00
2023-03-16T18:59:54.522Z,82.00
2023-03-16T19:02:41.130Z,70.00
2023-03-16T19:05:16.815Z,73.00
2023-03-16T19:07:48.853Z,72.00
2023-03-16T19:10:26.689Z,71.00
2023-03-16T19:12:55.112Z,67.50
2023-03-16T19:15:32.593Z,62.00
2023-03-16T19:18:01.084Z,65.00
2023-03-16T19:20:33.242Z,61.50
2023-03-16T19:23:30.971Z,67.50
2023-03-16T19:25:59.345Z,65.00
2023-03-16T19:28:39.470Z,62.00
2023-03-16T19:31:24.112Z,62.50
2023-03-16T19:33:52.650Z,67.50
2023-03-16T19:36:24.826Z,63.00
2023-03-16T19:38:53.113Z,61.00
2023-03-16T19:41:23.517Z,66.00
2023-03-16T19:43:52.990Z,55.00
2023-03-16T19:46:21.179Z,60.67
2023-03-16T19:48:49.135Z,55.00
2023-03-16T19:51:18.128Z,58.50
2023-03-16T19:53:46.190Z,56.00
2023-03-16T19:56:23.197Z,68.00
2023-03-16T19:58:53.819Z,66.00
2023-03-16T20:01:32.525Z,63.50
2023-03-16T20:04:04.503Z,61.00
2023-03-16T20:06:33.390Z,68.00
2023-03-16T20:09:01.579Z,73.00
2023-03-16T20:11:31.789Z,72.00
2023-03-16T20:14:01.849Z,70.50
2023-03-16T20:16:35.561Z,67.00
2023-03-16T20:19:12.402Z,66.00
2023-03-16T20:21:40.700Z,69.00
2023-03-16T20:24:16.387Z,55.50
2023-03-16T20:26:46.543Z,59.00
2023-03-16T20:29:32.287Z,65.00
2023-03-16T20:32:02.199Z,63.00
2023-03-16T20:34:32.383Z,63.00
2023-03-16T20:37:00.783Z,65.00
2023-03-16T20:39:28.777Z,69.50
2023-03-16T20:41:57.188Z,65.00
2023-03-16T20:44:25.729Z,67.67
2023-03-16T20:46:53.682Z,69.50
2023-03-16T20:49:21.619Z,78.00
2023-03-16T20:54:18.177Z,71.50
2023-03-16T20:56:46.992Z,72.00
2023-03-16T20:59:23.951Z,73.00
2023-03-16T21:01:54.749Z,77.00
2023-03-16T21:04:26.276Z,67.00
2023-03-16T21:06:55.787Z,72.50
2023-03-16T21:09:23.888Z,70.00
2023-03-16T21:11:51.840Z,67.50
2023-03-16T21:14:24.508Z,78.00
2023-03-16T21:16:54.001Z,77.50
2023-03-16T21:19:23.556Z,87.00
2023-03-16T21:21:51.640Z,84.00
2023-03-16T21:24:39.888Z,89.00
2023-03-16T21:27:19.466Z,83.00
2023-03-16T21:29:48.411Z,86.00
2023-03-16T21:32:22.473Z,93.00
2023-03-16T21:34:50.760Z,88.00
2023-03-16T21:37:22.392Z,85.00
2023-03-16T21:39:54.697Z,88.00
2023-03-16T21:42:22.686Z,53.50
2023-03-16T21:44:50.841Z,100.50
2023-03-16T21:47:28.115Z,95.50
2023-03-16T21:49:56.383Z,98.50
2023-03-16T21:52:27.867Z,106.50
2023-03-16T21:54:57.297Z,109.00
2023-03-16T21:57:25.190Z,112.00
2023-03-16T21:59:53.148Z,113.50
2023-03-16T22:02:24.970Z,115.00
2023-03-16T22:04:56.862Z,124.50
2023-03-16T22:07:25.603Z,113.00
2023-03-16T22:09:53.538Z,111.00
2023-03-16T22:12:21.455Z,103.33
2023-03-16T22:14:49.573Z,105.00
2023-03-16T22:17:24.400Z,104.50
2023-03-16T22:19:53.193Z,121.00
2023-03-16T22:22:21.444Z,107.00
2023-03-16T22:24:49.617Z,101.00
2023-03-16T22:27:21.879Z,118.00
2023-03-16T22:29:51.295Z,108.50
2023-03-16T22:32:21.905Z,105.50
2023-03-16T22:34:56.681Z,102.00
2023-03-16T22:37:27.888Z,103.00
2023-03-16T22:39:58.536Z,107.00
2023-03-16T22:42:36.101Z,106.00
2023-03-16T22:45:26.268Z,105.00
2023-03-16T22:47:56.589Z,100.00
2023-03-16T22:50:28.248Z,105.00
2023-03-16T22:52:59.852Z,105.50
2023-03-16T22:55:32.704Z,105.00
2023-03-16T22:58:32.839Z,99.00
2023-03-16T23:01:12.176Z,106.50
2023-03-16T23:03:41.077Z,103.50
2023-03-16T23:06:17.362Z,118.00
2023-03-16T23:08:45.437Z,123.00
2023-03-16T23:11:22.414Z,111.00
2023-03-16T23:13:53.613Z,102.50
2023-03-16T23:16:29.428Z,105.00
2023-03-16T23:18:57.638Z,104.50
2023-03-16T23:21:26.639Z,98.00
2023-03-16T23:24:03.664Z,97.33
2023-03-16T23:26:32.916Z,94.00
2023-03-16T23:29:01.048Z,91.00
2023-03-16T23:31:29.650Z,91.50
2023-03-16T23:33:57.753Z,90.50
2023-03-16T23:36:26.483Z,102.00
2023-03-16T23:38:54.769Z,92.00
2023-03-16T23:41:25.008Z,98.00
2023-03-16T23:43:54.315Z,82.67
2023-03-16T23:46:25.273Z,96.00
2023-03-16T23:48:57.123Z,85.67
2023-03-16T23:51:29.246Z,94.00
2023-03-16T23:53:58.653Z,94.00
2023-03-16T23:56:27.178Z,100.00
2023-03-16T23:58:55.192Z,98.50
